createdAt,value
2022-09-24T00:01:16.352Z,12.19
2022-09-24T00:03:51.548Z,12.19
2022-09-24T00:06:21.291Z,12.22
2022-09-24T00:08:53.700Z,12.22
2022-09-24T00:11:24.161Z,12.25
2022-09-24T00:13:53.818Z,12.14
2022-09-24T00:16:25.854Z,12.16
2022-09-24T00:18:55.088Z,12.19
2022-09-24T00:21:26.173Z,12.24
2022-09-24T00:23:58.146Z,12.22
2022-09-24T00:26:57.102Z,12.24
2022-09-24T00:29:26.131Z,12.27
2022-09-24T00:31:55.241Z,12.29
2022-09-24T00:34:24.242Z,12.26
2022-09-24T00:36:53.420Z,12.32
2022-09-24T00:39:22.074Z,12.31
2022-09-24T00:41:50.814Z,12.30
2022-09-24T00:44:47.137Z,12.28
2022-09-24T00:47:22.969Z,12.26
2022-09-24T00:49:52.949Z,12.22
2022-09-24T00:52:22.356Z,12.20
2022-09-24T00:54:51.179Z,12.17
2022-09-24T00:57:20.368Z,12.15
2022-09-24T00:59:49.406Z,12.13
2022-09-24T01:02:18.500Z,12.10
2022-09-24T01:04:47.887Z,12.07
2022-09-24T01:07:16.637Z,12.02
2022-09-24T01:09:45.384Z,11.97
2022-09-24T01:12:23.631Z,12.04
2022-09-24T01:15:02.514Z,12.04
2022-09-24T01:17:39.956Z,12.05
2022-09-24T01:20:51.963Z,12.03
2022-09-24T01:23:57.740Z,12.03
2022-09-24T01:26:55.006Z,12.05
2022-09-24T01:30:02.311Z,12.09
2022-09-24T01:32:37.686Z,12.08
2022-09-24T01:35:13.244Z,12.13
2022-09-24T01:37:45.389Z,12.07
2022-09-24T01:40:15.515Z,12.11
2022-09-24T01:42:45.975Z,12.08
2022-09-24T01:45:16.831Z,12.09
2022-09-24T01:47:46.529Z,12.10
2022-09-24T01:50:17.603Z,12.07
2022-09-24T01:52:52.236Z,12.07
2022-09-24T01:55:25.124Z,12.07
2022-09-24T01:57:58.532Z,12.07
2022-09-24T02:00:28.015Z,11.96
2022-09-24T02:03:00.305Z,11.96
2022-09-24T02:05:34.258Z,11.99
2022-09-24T02:08:09.344Z,11.99
2022-09-24T02:10:46.091Z,12.01
2022-09-24T02:13:17.020Z,12.02
2022-09-24T02:15:49.393Z,12.00
2022-09-24T02:18:23.234Z,12.05
2022-09-24T02:20:53.256Z,12.09
2022-09-24T02:23:25.936Z,12.10
2022-09-24T02:26:01.880Z,12.05
2022-09-24T02:28:32.703Z,12.01
2022-09-24T02:31:05.996Z,11.98
2022-09-24T02:33:57.212Z,12.01
2022-09-24T02:36:27.783Z,12.01
2022-09-24T02:38:56.578Z,12.05
2022-09-24T02:41:25.885Z,12.03
2022-09-24T02:43:54.580Z,12.03
2022-09-24T02:46:23.693Z,12.03
2022-09-24T02:48:52.327Z,12.03
2022-09-24T02:51:21.433Z,12.05
2022-09-24T02:53:50.169Z,12.00
2022-09-24T02:56:18.771Z,12.01
2022-09-24T02:58:47.589Z,12.01
2022-09-24T03:01:16.260Z,11.99
2022-09-24T03:03:44.927Z,12.00
2022-09-24T03:06:13.993Z,11.98
2022-09-24T03:08:44.061Z,12.01
2022-09-24T03:11:18.370Z,11.98
2022-09-24T03:13:47.788Z,12.00
2022-09-24T03:16:17.797Z,12.04
2022-09-24T03:18:47.976Z,12.07
2022-09-24T03:21:18.494Z,12.09
2022-09-24T03:23:47.500Z,12.06
2022-09-24T03:26:17.046Z,12.01
2022-09-24T03:28:46.036Z,12.01
2022-09-24T03:31:15.136Z,12.01
2022-09-24T03:33:45.846Z,12.00
2022-09-24T03:36:17.329Z,12.01
2022-09-24T03:38:47.935Z,11.99
2022-09-24T03:41:17.478Z,11.95
2022-09-24T03:43:46.258Z,11.92
2022-09-24T03:46:16.643Z,11.92
2022-09-24T03:48:46.668Z,11.94
2022-09-24T03:51:19.294Z,11.95
2022-09-24T03:53:48.548Z,11.89
2022-09-24T03:56:17.216Z,11.85
2022-09-24T03:58:47.545Z,11.89
2022-09-24T04:01:18.716Z,11.85
2022-09-24T04:03:47.401Z,11.86
2022-09-24T04:06:16.502Z,11.86
2022-09-24T04:08:46.970Z,11.80
2022-09-24T04:11:15.617Z,11.80
2022-09-24T04:13:44.637Z,11.78
2022-09-24T04:16:14.230Z,11.77
2022-09-24T04:18:42.955Z,11.76
2022-09-24T04:21:12.024Z,11.72
2022-09-24T04:23:40.750Z,11.71
2022-09-24T04:26:09.876Z,11.66
2022-09-24T04:28:38.552Z,11.65
2022-09-24T04:31:07.308Z,11.65
2022-09-24T04:33:36.134Z,11.67
2022-09-24T04:36:04.926Z,11.59
2022-09-24T04:38:33.659Z,11.55
2022-09-24T04:41:07.213Z,11.56
2022-09-24T04:43:36.748Z,11.61
2022-09-24T04:46:06.149Z,11.55
2022-09-24T04:48:37.723Z,11.56
2022-09-24T04:51:07.460Z,11.55
2022-09-24T04:53:36.950Z,11.50
2022-09-24T04:56:11.362Z,11.52
2022-09-24T04:58:40.462Z,11.51
2022-09-24T05:01:09.557Z,11.48
2022-09-24T05:03:38.739Z,11.49
2022-09-24T05:06:07.634Z,11.53
2022-09-24T05:08:36.258Z,11.49
2022-09-24T05:11:05.173Z,11.52
2022-09-24T05:13:34.622Z,11.54
2022-09-24T05:16:03.955Z,11.50
2022-09-24T05:18:32.765Z,11.46
2022-09-24T05:21:01.704Z,11.49
2022-09-24T05:23:30.396Z,11.52
2022-09-24T05:26:17.518Z,11.52
2022-09-24T05:28:46.373Z,11.53
2022-09-24T05:31:15.197Z,11.51
2022-09-24T05:33:43.854Z,11.53
2022-09-24T05:36:12.539Z,11.54
2022-09-24T05:38:41.968Z,11.51
2022-09-24T05:41:11.087Z,11.58
2022-09-24T05:43:40.575Z,11.61
2022-09-24T05:46:09.359Z,11.61
2022-09-24T05:48:38.143Z,11.64
2022-09-24T05:51:07.089Z,11.66
2022-09-24T05:53:36.262Z,11.68
2022-09-24T05:56:05.640Z,11.70
2022-09-24T05:58:36.365Z,11.72
2022-09-24T06:01:05.015Z,11.69
2022-09-24T06:03:33.824Z,11.69
2022-09-24T06:06:02.621Z,11.73
2022-09-24T06:08:32.434Z,11.72
2022-09-24T06:11:02.240Z,11.76
2022-09-24T06:13:31.749Z,11.79
2022-09-24T06:16:05.869Z,11.80
2022-09-24T06:18:36.038Z,11.81
2022-09-24T06:21:07.462Z,11.81
2022-09-24T06:23:37.638Z,11.79
2022-09-24T06:26:09.809Z,11.82
2022-09-24T06:28:39.244Z,11.86
2022-09-24T06:31:11.233Z,11.85
2022-09-24T06:33:40.402Z,11.85
2022-09-24T06:36:09.795Z,11.81
2022-09-24T06:38:40.045Z,11.80
2022-09-24T06:41:09.624Z,11.86
2022-09-24T06:43:38.619Z,11.81
2022-09-24T06:46:07.547Z,11.89
2022-09-24T06:48:37.674Z,11.93
2022-09-24T06:51:07.211Z,11.98
2022-09-24T06:53:35.940Z,12.04
2022-09-24T06:56:05.100Z,12.11
2022-09-24T06:58:33.852Z,12.25
2022-09-24T07:01:06.551Z,12.23
2022-09-24T07:03:34.452Z,12.32
2022-09-24T07:06:10.909Z,12.35
2022-09-24T07:08:39.643Z,12.45
2022-09-24T07:11:08.624Z,12.53
2022-09-24T07:13:37.457Z,12.57
2022-09-24T07:16:06.828Z,12.71
2022-09-24T07:18:36.983Z,12.83
2022-09-24T07:21:06.128Z,12.83
2022-09-24T07:23:34.875Z,12.73
2022-09-24T07:26:03.579Z,12.82
2022-09-24T07:28:32.434Z,12.96
2022-09-24T07:31:01.499Z,13.03
2022-09-24T07:33:32.375Z,13.05
2022-09-24T07:36:06.612Z,13.21
2022-09-24T07:38:36.108Z,13.23
2022-09-24T07:41:07.412Z,13.24
2022-09-24T07:43:36.209Z,13.30
2022-09-24T07:46:06.035Z,13.38
2022-09-24T07:48:35.262Z,13.42
2022-09-24T07:51:05.759Z,13.53
2022-09-24T07:53:34.678Z,13.52
2022-09-24T07:56:04.461Z,13.55
2022-09-24T07:58:33.306Z,13.69
2022-09-24T08:01:03.024Z,13.77
2022-09-24T08:03:33.698Z,13.85
2022-09-24T08:06:04.977Z,13.95
2022-09-24T08:08:34.687Z,14.01
2022-09-24T08:11:07.156Z,14.11
2022-09-24T08:13:35.949Z,14.17
2022-09-24T08:16:06.652Z,14.19
2022-09-24T08:18:35.617Z,14.22
2022-09-24T08:21:06.548Z,14.31
2022-09-24T08:23:36.472Z,14.37
2022-09-24T08:26:06.050Z,14.37
2022-09-24T08:28:36.215Z,14.49
2022-09-24T08:31:09.272Z,14.55
2022-09-24T08:33:40.114Z,14.64
2022-09-24T08:36:10.293Z,14.71
2022-09-24T08:38:40.594Z,14.73
2022-09-24T08:41:33.317Z,14.75
2022-09-24T08:44:10.255Z,14.91
2022-09-24T08:47:02.590Z,14.96
2022-09-24T08:49:37.648Z,15.02
2022-09-24T08:52:22.178Z,15.09
2022-09-24T08:54:55.089Z,15.10
2022-09-24T08:57:25.774Z,15.16
2022-09-24T08:59:55.321Z,15.21
2022-09-24T09:02:42.250Z,15.30
2022-09-24T09:05:24.450Z,15.31
2022-09-24T09:08:01.371Z,15.38
2022-09-24T09:10:36.422Z,15.44
2022-09-24T09:13:18.062Z,15.48
2022-09-24T09:15:53.883Z,15.53
2022-09-24T09:18:26.946Z,15.64
2022-09-24T09:21:06.388Z,15.70
2022-09-24T09:23:42.238Z,15.68
2022-09-24T09:26:12.896Z,15.78
2022-09-24T09:28:42.337Z,15.77
2022-09-24T09:31:26.284Z,15.75
2022-09-24T09:34:11.185Z,15.80
2022-09-24T09:36:52.735Z,15.87
2022-09-24T09:39:36.576Z,15.90
2022-09-24T09:42:18.239Z,16.07
2022-09-24T09:44:49.986Z,16.15
2022-09-24T09:47:25.055Z,16.21
2022-09-24T09:49:57.730Z,16.40
2022-09-24T09:52:30.079Z,16.46
2022-09-24T09:54:59.182Z,16.53
2022-09-24T09:57:28.554Z,16.56
2022-09-24T09:59:57.683Z,16.60
2022-09-24T10:02:30.591Z,16.80
2022-09-24T10:05:01.649Z,16.86
2022-09-24T10:07:31.391Z,16.86
2022-09-24T10:10:15.912Z,16.95
2022-09-24T10:12:44.783Z,17.11
2022-09-24T10:15:19.867Z,17.22
2022-09-24T10:17:51.749Z,17.39
2022-09-24T10:20:26.864Z,17.55
2022-09-24T10:22:59.961Z,17.66
2022-09-24T10:25:31.288Z,17.83
2022-09-24T10:28:20.959Z,17.98
2022-09-24T10:30:53.142Z,18.12
2022-09-24T10:33:22.466Z,18.16
2022-09-24T10:35:51.577Z,18.34
2022-09-24T10:38:24.487Z,18.43
2022-09-24T10:40:53.823Z,18.53
2022-09-24T10:43:23.132Z,18.80
2022-09-24T10:46:05.081Z,18.91
2022-09-24T10:48:42.550Z,18.81
2022-09-24T10:51:28.914Z,18.90
2022-09-24T10:54:14.920Z,19.02
2022-09-24T10:56:48.336Z,19.11
2022-09-24T10:59:43.310Z,19.19
2022-09-24T11:02:31.398Z,19.14
2022-09-24T11:05:04.825Z,19.14
2022-09-24T11:07:58.988Z,19.26
2022-09-24T11:10:51.150Z,19.16
2022-09-24T11:13:30.981Z,19.06
2022-09-24T11:16:22.857Z,18.95
2022-09-24T11:18:58.879Z,18.92
2022-09-24T11:21:37.899Z,18.78
2022-09-24T11:24:37.166Z,18.80
2022-09-24T11:27:27.280Z,18.83
2022-09-24T11:30:07.383Z,18.87
2022-09-24T11:32:49.067Z,18.92
2022-09-24T11:35:30.058Z,18.93
2022-09-24T11:38:05.931Z,18.86
2022-09-24T11:40:52.328Z,18.66
2022-09-24T11:43:36.787Z,18.72
2022-09-24T11:46:19.589Z,18.51
2022-09-24T11:49:07.839Z,18.55
2022-09-24T11:51:51.157Z,18.77
2022-09-24T11:54:27.030Z,18.73
2022-09-24T11:57:02.462Z,18.79
2022-09-24T11:59:44.762Z,18.78
2022-09-24T12:02:20.169Z,18.91
2022-09-24T12:05:02.253Z,18.93
2022-09-24T12:07:39.114Z,18.82
2022-09-24T12:10:25.714Z,18.84
2022-09-24T12:13:03.685Z,18.81
2022-09-24T12:15:43.470Z,18.65
2022-09-24T12:18:18.548Z,18.59
2022-09-24T12:20:52.021Z,18.55
2022-09-24T12:23:27.401Z,18.33
2022-09-24T12:25:59.414Z,18.21
2022-09-24T12:28:53.903Z,18.08
2022-09-24T12:31:58.895Z,18.07
2022-09-24T12:34:36.261Z,18.04
2022-09-24T12:37:10.076Z,18.00
2022-09-24T12:39:48.479Z,18.01
2022-09-24T12:42:20.105Z,17.91
2022-09-24T12:44:53.786Z,17.92
2022-09-24T12:47:24.675Z,17.94
2022-09-24T12:49:57.447Z,17.88
2022-09-24T12:52:27.660Z,17.92
2022-09-24T12:55:01.569Z,17.89
2022-09-24T12:57:37.365Z,17.93
2022-09-24T13:00:37.654Z,17.82
2022-09-24T13:03:27.506Z,17.86
2022-09-24T13:05:59.493Z,17.94
2022-09-24T13:08:37.224Z,18.00
2022-09-24T13:11:26.938Z,18.05
2022-09-24T13:14:02.307Z,18.04
2022-09-24T13:16:32.340Z,17.91
2022-09-24T13:19:02.374Z,17.97
2022-09-24T13:21:31.913Z,17.98
2022-09-24T13:24:11.594Z,18.10
2022-09-24T13:26:40.517Z,18.27
2022-09-24T13:29:24.386Z,18.34
2022-09-24T13:31:59.798Z,18.41
2022-09-24T13:34:31.725Z,18.36
2022-09-24T13:37:10.262Z,18.35
2022-09-24T13:39:44.846Z,18.34
2022-09-24T13:42:20.509Z,18.17
2022-09-24T13:44:52.953Z,18.11
2022-09-24T13:47:29.855Z,18.09
2022-09-24T13:50:12.235Z,17.98
2022-09-24T13:52:45.899Z,17.82
2022-09-24T13:55:21.483Z,17.78
2022-09-24T13:57:50.394Z,17.71
2022-09-24T14:00:23.975Z,17.65
2022-09-24T14:03:00.315Z,17.77
2022-09-24T14:05:30.449Z,17.80
2022-09-24T14:08:08.024Z,17.82
2022-09-24T14:10:37.401Z,17.85
2022-09-24T14:13:20.830Z,17.87
2022-09-24T14:15:55.632Z,17.85
2022-09-24T14:18:26.341Z,17.68
2022-09-24T14:20:58.868Z,17.71
2022-09-24T14:23:32.619Z,17.77
2022-09-24T14:26:03.278Z,17.94
2022-09-24T14:28:33.402Z,17.98
2022-09-24T14:31:07.276Z,17.99
2022-09-24T14:33:39.528Z,18.03
2022-09-24T14:36:12.700Z,18.04
2022-09-24T14:38:54.031Z,18.04
2022-09-24T14:41:27.977Z,18.10
2022-09-24T14:44:01.605Z,18.21
2022-09-24T14:46:34.398Z,18.30
2022-09-24T14:49:17.348Z,18.52
2022-09-24T14:51:53.957Z,18.52
2022-09-24T14:54:29.645Z,18.31
2022-09-24T14:57:10.843Z,18.51
2022-09-24T14:59:41.481Z,18.84
2022-09-24T15:02:19.641Z,19.00
2022-09-24T15:04:51.838Z,18.88
2022-09-24T15:07:25.379Z,18.89
2022-09-24T15:09:56.487Z,18.68
2022-09-24T15:12:30.509Z,18.65
2022-09-24T15:15:01.086Z,18.57
2022-09-24T15:17:32.317Z,18.52
2022-09-24T15:20:02.208Z,18.32
2022-09-24T15:22:31.664Z,18.17
2022-09-24T15:25:02.325Z,18.05
2022-09-24T15:27:33.893Z,17.95
2022-09-24T15:30:05.507Z,17.84
2022-09-24T15:32:36.066Z,17.77
2022-09-24T15:35:08.671Z,17.75
2022-09-24T15:37:38.558Z,17.69
2022-09-24T15:40:15.522Z,17.60
2022-09-24T15:42:44.290Z,17.61
2022-09-24T15:45:20.596Z,17.59
2022-09-24T15:47:50.391Z,17.42
2022-09-24T15:50:20.382Z,17.50
2022-09-24T15:52:53.319Z,17.36
2022-09-24T15:55:24.195Z,17.35
2022-09-24T15:57:53.956Z,17.24
2022-09-24T16:00:25.121Z,17.18
2022-09-24T16:02:57.479Z,17.10
2022-09-24T16:05:26.099Z,16.95
2022-09-24T16:07:55.112Z,16.85
2022-09-24T16:10:24.099Z,16.81
2022-09-24T16:12:52.894Z,16.71
2022-09-24T16:15:21.884Z,16.59
2022-09-24T16:17:51.725Z,16.57
2022-09-24T16:20:21.310Z,16.46
2022-09-24T16:22:50.678Z,16.48
2022-09-24T16:25:20.133Z,16.32
2022-09-24T16:27:49.224Z,16.31
2022-09-24T16:30:18.787Z,16.26
2022-09-24T16:32:47.753Z,16.35
2022-09-24T16:35:17.383Z,16.38
2022-09-24T16:37:47.170Z,16.16
2022-09-24T16:40:16.831Z,16.05
2022-09-24T16:42:46.518Z,16.05
2022-09-24T16:45:15.535Z,16.03
2022-09-24T16:47:44.906Z,15.95
2022-09-24T16:50:15.310Z,15.89
2022-09-24T16:52:45.404Z,15.85
2022-09-24T16:55:15.267Z,15.79
2022-09-24T16:57:44.099Z,15.70
2022-09-24T17:00:14.590Z,15.63
2022-09-24T17:02:43.335Z,15.60
2022-09-24T17:05:12.052Z,15.55
2022-09-24T17:07:41.580Z,15.50
2022-09-24T17:10:15.532Z,15.42
2022-09-24T17:12:47.723Z,15.38
2022-09-24T17:15:20.383Z,15.41
2022-09-24T17:17:50.855Z,15.42
2022-09-24T17:20:20.703Z,15.39
2022-09-24T17:22:50.425Z,15.40
2022-09-24T17:25:19.664Z,15.37
2022-09-24T17:27:49.667Z,15.32
2022-09-24T17:30:18.732Z,15.31
2022-09-24T17:32:47.596Z,15.37
2022-09-24T17:35:16.432Z,15.30
2022-09-24T17:37:47.463Z,15.25
2022-09-24T17:40:22.987Z,15.19
2022-09-24T17:42:52.899Z,15.17
2022-09-24T17:45:21.939Z,15.17
2022-09-24T17:47:56.527Z,15.12
2022-09-24T17:50:25.407Z,15.04
2022-09-24T17:52:54.110Z,14.83
2022-09-24T17:55:22.792Z,14.77
2022-09-24T17:57:51.761Z,14.87
2022-09-24T18:00:20.565Z,14.97
2022-09-24T18:02:49.506Z,15.03
2022-09-24T18:05:18.746Z,15.05
2022-09-24T18:07:47.460Z,15.07
2022-09-24T18:10:17.555Z,15.06
2022-09-24T18:12:46.605Z,15.04
2022-09-24T18:15:15.560Z,14.98
2022-09-24T18:17:44.431Z,14.98
2022-09-24T18:20:13.507Z,14.92
2022-09-24T18:22:42.205Z,14.81
2022-09-24T18:25:13.066Z,14.81
2022-09-24T18:27:43.546Z,14.78
2022-09-24T18:30:15.043Z,14.75
2022-09-24T18:32:46.197Z,14.77
2022-09-24T18:35:15.278Z,14.73
2022-09-24T18:37:44.117Z,14.68
2022-09-24T18:40:13.278Z,14.57
2022-09-24T18:42:42.026Z,14.38
2022-09-24T18:45:12.172Z,14.48
2022-09-24T18:47:41.020Z,14.56
2022-09-24T18:50:10.780Z,14.48
2022-09-24T18:52:39.672Z,14.43
2022-09-24T18:55:10.301Z,14.43
2022-09-24T18:57:39.365Z,14.40
2022-09-24T19:00:31.295Z,14.39
2022-09-24T19:03:00.737Z,14.40
2022-09-24T19:05:29.895Z,14.35
2022-09-24T19:07:59.059Z,14.43
2022-09-24T19:10:27.858Z,14.38
2022-09-24T19:12:56.629Z,14.30
2022-09-24T19:15:25.692Z,14.29
2022-09-24T19:17:55.003Z,14.28
2022-09-24T19:20:23.860Z,14.38
2022-09-24T19:22:59.540Z,14.38
2022-09-24T19:25:32.927Z,14.35
2022-09-24T19:28:03.543Z,14.35
2022-09-24T19:30:36.664Z,14.33
2022-09-24T19:33:05.984Z,14.33
2022-09-24T19:35:35.178Z,14.30
2022-09-24T19:38:04.176Z,14.29
2022-09-24T19:40:32.938Z,14.30
2022-09-24T19:43:02.568Z,14.21
2022-09-24T19:45:31.249Z,14.17
2022-09-24T19:48:00.584Z,14.19
2022-09-24T19:50:33.674Z,14.16
2022-09-24T19:53:04.632Z,14.20
2022-09-24T19:55:35.525Z,14.20
2022-09-24T19:58:04.229Z,14.15
2022-09-24T20:00:33.076Z,14.20
2022-09-24T20:03:02.245Z,14.22
2022-09-24T20:05:31.384Z,14.23
2022-09-24T20:08:00.544Z,14.20
2022-09-24T20:10:30.792Z,14.19
2022-09-24T20:12:59.488Z,14.00
2022-09-24T20:15:28.876Z,13.96
2022-09-24T20:17:58.165Z,13.96
2022-09-24T20:20:27.244Z,13.96
2022-09-24T20:22:56.417Z,14.03
2022-09-24T20:25:45.039Z,14.10
2022-09-24T20:28:14.916Z,14.13
2022-09-24T20:30:44.109Z,14.11
2022-09-24T20:33:13.094Z,14.09
2022-09-24T20:35:42.378Z,14.04
2022-09-24T20:38:11.500Z,14.07
2022-09-24T20:40:40.713Z,14.12
2022-09-24T20:43:09.599Z,14.16
2022-09-24T20:45:41.054Z,14.13
2022-09-24T20:48:10.811Z,14.12
2022-09-24T20:50:39.678Z,14.09
2022-09-24T20:53:08.678Z,14.11
2022-09-24T20:55:39.222Z,14.19
2022-09-24T20:58:09.676Z,14.15
2022-09-24T21:00:47.771Z,13.92
2022-09-24T21:03:39.628Z,13.76
2022-09-24T21:06:07.580Z,13.90
2022-09-24T21:08:38.370Z,13.99
2022-09-24T21:11:10.475Z,13.98
2022-09-24T21:13:44.123Z,13.99
2022-09-24T21:16:13.052Z,13.94
2022-09-24T21:18:43.796Z,13.90
2022-09-24T21:21:15.501Z,13.95
2022-09-24T21:23:45.827Z,14.00
2022-09-24T21:26:17.844Z,14.05
2022-09-24T21:28:48.916Z,14.08
2022-09-24T21:31:20.365Z,14.06
2022-09-24T21:33:52.100Z,14.04
2022-09-24T21:36:23.521Z,14.09
2022-09-24T21:38:54.099Z,14.08
2022-09-24T21:41:24.064Z,14.03
2022-09-24T21:43:54.812Z,13.98
2022-09-24T21:46:24.778Z,13.97
2022-09-24T21:48:54.906Z,13.98
2022-09-24T21:51:26.251Z,13.97
2022-09-24T21:53:57.601Z,13.91
2022-09-24T21:56:27.458Z,13.91
2022-09-24T21:58:57.422Z,13.93
2022-09-24T22:01:28.506Z,13.91
2022-09-24T22:03:58.979Z,13.92
2022-09-24T22:06:29.780Z,13.88
2022-09-24T22:09:01.425Z,13.83
2022-09-24T22:11:30.630Z,13.80
2022-09-24T22:14:00.602Z,13.82
2022-09-24T22:16:31.818Z,13.76
2022-09-24T22:19:01.290Z,13.83
2022-09-24T22:21:31.235Z,13.83
2022-09-24T22:24:00.477Z,13.81
2022-09-24T22:26:29.704Z,13.81
2022-09-24T22:28:59.616Z,13.75
2022-09-24T22:31:28.375Z,13.76
2022-09-24T22:34:15.447Z,13.82
2022-09-24T22:36:44.211Z,13.81
2022-09-24T22:39:12.900Z,13.86
2022-09-24T22:41:43.434Z,13.87
2022-09-24T22:44:12.869Z,13.89
2022-09-24T22:46:41.793Z,13.81
2022-09-24T22:49:10.962Z,13.76
2022-09-24T22:51:39.926Z,13.74
2022-09-24T22:54:09.364Z,13.69
2022-09-24T22:56:38.429Z,13.66
2022-09-24T22:59:07.169Z,13.61
2022-09-24T23:01:40.549Z,13.55
2022-09-24T23:04:12.592Z,13.45
2022-09-24T23:06:41.771Z,13.48
2022-09-24T23:09:11.127Z,13.53
2022-09-24T23:11:40.025Z,13.57
2022-09-24T23:14:12.824Z,13.50
2022-09-24T23:16:42.647Z,13.42
2022-09-24T23:19:14.770Z,13.41
2022-09-24T23:21:44.445Z,13.36
2022-09-24T23:24:16.534Z,13.29
2022-09-24T23:26:46.493Z,13.22
2022-09-24T23:29:15.723Z,13.15
2022-09-24T23:31:44.571Z,13.06
2022-09-24T23:34:13.956Z,12.99
2022-09-24T23:36:44.710Z,13.00
2022-09-24T23:39:13.722Z,12.94
2022-09-24T23:41:42.531Z,12.85
2022-09-24T23:44:11.610Z,12.83
2022-09-24T23:46:40.547Z,12.79
2022-09-24T23:49:09.708Z,12.77
2022-09-24T23:51:38.582Z,12.73
2022-09-24T23:54:07.813Z,12.77
2022-09-24T23:56:36.529Z,12.67
2022-09-24T23:59:05.386Z,12.58
